createdAt,value
2023-02-07T00:01:24.218Z,101198.00
2023-02-07T00:03:52.832Z,101215.84
2023-02-07T00:06:24.749Z,101211.53
2023-02-07T00:08:53.799Z,101224.28
2023-02-07T00:11:23.785Z,101225.28
2023-02-07T00:13:54.590Z,101222.75
2023-02-07T00:16:25.477Z,101231.38
2023-02-07T00:18:54.144Z,101226.34
2023-02-07T00:21:24.863Z,101229.78
2023-02-07T00:23:54.035Z,101225.50
2023-02-07T00:26:24.055Z,101216.94
2023-02-07T00:28:54.262Z,101245.94
2023-02-07T00:31:24.839Z,101243.38
2023-02-07T00:33:55.406Z,101230.59
2023-02-07T00:36:27.030Z,101246.75
2023-02-07T00:38:58.060Z,101230.56
2023-02-07T00:41:26.312Z,101244.19
2023-02-07T00:43:54.323Z,101248.41
2023-02-07T00:46:22.960Z,101249.31
2023-02-07T00:48:52.329Z,101245.97
2023-02-07T00:51:20.386Z,101251.97
2023-02-07T00:53:49.990Z,101258.81
2023-02-07T00:56:17.975Z,101253.66
2023-02-07T00:58:45.870Z,101244.28
2023-02-07T01:01:14.394Z,101244.34
2023-02-07T01:03:42.600Z,101253.69
2023-02-07T01:06:11.353Z,101249.41
2023-02-07T01:08:40.162Z,101234.84
2023-02-07T01:11:12.294Z,101232.31
2023-02-07T01:13:43.295Z,101245.16
2023-02-07T01:16:19.324Z,101246.00
2023-02-07T01:18:47.443Z,101248.56
2023-02-07T01:21:16.759Z,101238.34
2023-02-07T01:23:44.881Z,101244.28
2023-02-07T01:26:14.606Z,101227.22
2023-02-07T01:28:42.574Z,101230.59
2023-02-07T01:31:12.375Z,101233.97
2023-02-07T01:33:40.625Z,101235.63
2023-02-07T01:36:09.734Z,101232.25
2023-02-07T01:38:37.813Z,101233.94
2023-02-07T01:41:06.213Z,101233.97
2023-02-07T01:43:35.872Z,101233.97
2023-02-07T01:46:03.894Z,101220.34
2023-02-07T01:48:36.887Z,101233.13
2023-02-07T01:51:08.711Z,101223.66
2023-02-07T01:53:38.751Z,101224.44
2023-02-07T01:56:09.278Z,101229.53
2023-02-07T01:58:39.707Z,101204.78
2023-02-07T02:01:11.170Z,101227.88
2023-02-07T02:03:42.632Z,101232.25
2023-02-07T02:06:12.725Z,101228.00
2023-02-07T02:08:41.320Z,101194.69
2023-02-07T02:11:24.253Z,101233.13
2023-02-07T02:14:02.645Z,101222.91
2023-02-07T02:16:36.062Z,101216.94
2023-02-07T02:19:39.081Z,101207.53
2023-02-07T02:22:45.294Z,101234.06
2023-02-07T02:26:07.179Z,101236.59
2023-02-07T02:29:23.420Z,101234.00
2023-02-07T02:32:27.527Z,101213.53
2023-02-07T02:35:05.026Z,101233.16
2023-02-07T02:37:43.868Z,101237.38
2023-02-07T02:40:28.117Z,101235.72
2023-02-07T02:43:02.826Z,101226.31
2023-02-07T02:45:37.119Z,101229.78
2023-02-07T02:48:07.206Z,101207.59
2023-02-07T02:50:36.863Z,101232.34
2023-02-07T02:53:04.848Z,101223.78
2023-02-07T02:55:58.451Z,101232.34
2023-02-07T02:58:35.684Z,101228.97
2023-02-07T03:01:13.813Z,101223.78
2023-02-07T03:04:06.575Z,101229.78
2023-02-07T03:06:45.862Z,101229.75
2023-02-07T03:09:22.084Z,101223.81
2023-02-07T03:11:57.377Z,101232.31
2023-02-07T03:14:34.394Z,101240.03
2023-02-07T03:17:12.626Z,101232.38
2023-02-07T03:19:45.086Z,101243.47
2023-02-07T03:22:19.607Z,101239.22
2023-02-07T03:24:51.638Z,101249.41
2023-02-07T03:27:22.890Z,101244.25
2023-02-07T03:29:57.745Z,101236.59
2023-02-07T03:32:30.839Z,101247.75
2023-02-07T03:35:02.598Z,101253.72
2023-02-07T03:37:36.735Z,101248.59
2023-02-07T03:40:05.945Z,101251.19
2023-02-07T03:42:38.407Z,101248.59
2023-02-07T03:45:09.615Z,101241.72
2023-02-07T03:47:37.728Z,101245.97
2023-02-07T03:50:06.226Z,101236.56
2023-02-07T03:52:35.631Z,101243.41
2023-02-07T03:55:03.591Z,101240.88
2023-02-07T03:57:31.486Z,101246.00
2023-02-07T03:59:59.449Z,101237.41
2023-02-07T04:02:27.628Z,101249.38
2023-02-07T04:04:55.715Z,101251.09
2023-02-07T04:07:23.723Z,101222.88
2023-02-07T04:09:53.208Z,101244.19
2023-02-07T04:12:21.204Z,101245.00
2023-02-07T04:14:49.126Z,101208.31
2023-02-07T04:17:17.083Z,101227.13
2023-02-07T04:19:45.101Z,101256.16
2023-02-07T04:22:13.083Z,101258.72
2023-02-07T04:24:40.981Z,101249.34
2023-02-07T04:27:10.353Z,101251.78
2023-02-07T04:29:38.237Z,101256.97
2023-02-07T04:32:06.439Z,101263.88
2023-02-07T04:34:34.443Z,101268.09
2023-02-07T04:37:02.612Z,101260.41
2023-02-07T04:39:30.806Z,101252.72
2023-02-07T04:41:58.762Z,101262.94
2023-02-07T04:44:28.212Z,101274.03
2023-02-07T04:46:56.234Z,101256.06
2023-02-07T04:49:24.309Z,101273.19
2023-02-07T04:51:52.284Z,101273.13
2023-02-07T04:54:20.989Z,101285.19
2023-02-07T04:56:48.991Z,101274.13
2023-02-07T04:59:16.905Z,101285.22
2023-02-07T05:01:46.228Z,101280.09
2023-02-07T05:04:14.243Z,101286.06
2023-02-07T05:06:42.228Z,101292.84
2023-02-07T05:09:10.141Z,101269.88
2023-02-07T05:11:38.208Z,101298.06
2023-02-07T05:14:06.238Z,101304.06
2023-02-07T05:16:34.291Z,101281.81
2023-02-07T05:19:03.813Z,101301.38
2023-02-07T05:21:31.825Z,101297.09
2023-02-07T05:23:59.890Z,101268.13
2023-02-07T05:26:27.920Z,101303.88
2023-02-07T05:28:55.845Z,101281.72
2023-02-07T05:31:44.433Z,101302.22
2023-02-07T05:34:12.870Z,101314.16
2023-02-07T05:36:41.068Z,101317.63
2023-02-07T05:39:09.192Z,101309.97
2023-02-07T05:41:37.365Z,101290.31
2023-02-07T05:44:05.332Z,101324.50
2023-02-07T05:46:33.381Z,101317.72
2023-02-07T05:49:01.364Z,101316.03
2023-02-07T05:51:30.899Z,101312.63
2023-02-07T05:53:58.827Z,101317.72
2023-02-07T05:56:26.812Z,101330.53
2023-02-07T05:58:54.968Z,101312.69
2023-02-07T06:01:23.073Z,101327.22
2023-02-07T06:03:51.306Z,101348.56
2023-02-07T06:06:19.324Z,101341.75
2023-02-07T06:08:48.645Z,101271.63
2023-02-07T06:11:16.781Z,101346.00
2023-02-07T06:13:44.868Z,101349.41
2023-02-07T06:16:12.903Z,101306.72
2023-02-07T06:18:41.204Z,101340.91
2023-02-07T06:21:09.591Z,101313.56
2023-02-07T06:23:37.515Z,101354.56
2023-02-07T06:26:07.074Z,101349.44
2023-02-07T06:28:35.104Z,101355.41
2023-02-07T06:31:03.280Z,101340.03
2023-02-07T06:33:31.288Z,101355.44
2023-02-07T06:35:59.589Z,101349.44
2023-02-07T06:38:27.814Z,101312.69
2023-02-07T06:40:55.861Z,101356.28
2023-02-07T06:43:25.332Z,101359.69
2023-02-07T06:45:53.539Z,101361.41
2023-02-07T06:48:21.906Z,101318.66
2023-02-07T06:50:51.508Z,101361.38
2023-02-07T06:53:19.480Z,101316.88
2023-02-07T06:55:53.822Z,101362.94
2023-02-07T06:58:23.070Z,101263.78
2023-02-07T07:00:52.435Z,101363.53
2023-02-07T07:03:22.825Z,101366.06
2023-02-07T07:05:55.060Z,101322.50
2023-02-07T07:08:23.274Z,101347.28
2023-02-07T07:10:51.378Z,101247.47
2023-02-07T07:13:19.400Z,101358.44
2023-02-07T07:15:47.804Z,101285.88
2023-02-07T07:18:17.319Z,101352.41
2023-02-07T07:20:45.251Z,101357.56
2023-02-07T07:23:13.284Z,101362.63
2023-02-07T07:25:41.340Z,101358.25
2023-02-07T07:28:09.343Z,101354.72
2023-02-07T07:30:37.417Z,101353.81
2023-02-07T07:33:05.458Z,101359.75
2023-02-07T07:35:34.958Z,101343.53
2023-02-07T07:38:02.993Z,101347.75
2023-02-07T07:40:31.327Z,101357.88
2023-02-07T07:42:59.314Z,101357.72
2023-02-07T07:45:27.881Z,101360.13
2023-02-07T07:47:55.911Z,101320.75
2023-02-07T07:50:24.053Z,101326.38
2023-02-07T07:52:53.497Z,101365.16
2023-02-07T07:55:21.501Z,101366.94
2023-02-07T07:57:49.591Z,101361.06
2023-02-07T08:00:18.332Z,101365.88
2023-02-07T08:02:46.830Z,101370.00
2023-02-07T08:05:14.862Z,101371.13
2023-02-07T08:07:42.943Z,101362.91
2023-02-07T08:10:12.473Z,101367.16
2023-02-07T08:12:42.638Z,101361.09
2023-02-07T08:15:11.324Z,101335.69
2023-02-07T08:17:39.365Z,101366.81
2023-02-07T08:20:08.156Z,101361.47
2023-02-07T08:22:36.321Z,101352.59
2023-02-07T08:25:04.370Z,101356.63
2023-02-07T08:27:33.908Z,101347.03
2023-02-07T08:30:01.980Z,101339.13
2023-02-07T08:32:30.470Z,101312.59
2023-02-07T08:34:58.568Z,101337.63
2023-02-07T08:37:26.899Z,101307.44
2023-02-07T08:39:55.971Z,101310.88
2023-02-07T08:42:24.224Z,101332.50
2023-02-07T08:44:53.679Z,101342.81
2023-02-07T08:47:21.629Z,101343.78
2023-02-07T08:49:49.717Z,101318.59
2023-02-07T08:52:17.740Z,101331.81
2023-02-07T08:54:45.827Z,101321.78
2023-02-07T08:57:13.835Z,101331.97
2023-02-07T08:59:41.932Z,101328.25
2023-02-07T09:02:13.048Z,101330.00
2023-02-07T09:04:43.409Z,101321.03
2023-02-07T09:07:11.814Z,101306.63
2023-02-07T09:09:40.561Z,101275.00
2023-02-07T09:12:09.820Z,101331.63
2023-02-07T09:14:38.440Z,101284.34
2023-02-07T09:17:07.947Z,101332.50
2023-02-07T09:19:37.942Z,101328.94
2023-02-07T09:22:06.822Z,101323.28
2023-02-07T09:24:34.849Z,101325.91
2023-02-07T09:27:03.282Z,101324.19
2023-02-07T09:29:31.260Z,101300.78
2023-02-07T09:31:59.188Z,101320.22
2023-02-07T09:34:27.612Z,101270.25
2023-02-07T09:36:57.069Z,101316.81
2023-02-07T09:39:27.037Z,101253.72
2023-02-07T09:42:05.465Z,101305.50
2023-02-07T09:44:49.735Z,101172.81
2023-02-07T09:47:22.149Z,101176.19
2023-02-07T09:49:55.446Z,101296.00
2023-02-07T09:52:30.440Z,101282.66
2023-02-07T09:55:00.855Z,101288.84
2023-02-07T09:57:37.853Z,101267.19
2023-02-07T10:00:11.114Z,101277.19
2023-02-07T10:02:43.212Z,101276.63
2023-02-07T10:05:17.925Z,101274.56
2023-02-07T10:07:49.178Z,101274.25
2023-02-07T10:10:18.354Z,101260.81
2023-02-07T10:13:20.890Z,101255.44
2023-02-07T10:16:12.063Z,101249.03
2023-02-07T10:18:47.766Z,101262.00
2023-02-07T10:21:27.178Z,101250.16
2023-02-07T10:24:17.595Z,101251.53
2023-02-07T10:26:52.540Z,101242.03
2023-02-07T10:29:50.979Z,101210.59
2023-02-07T10:32:23.652Z,101242.91
2023-02-07T10:34:55.273Z,101243.06
2023-02-07T10:37:25.337Z,101233.34
2023-02-07T10:40:03.323Z,101234.63
2023-02-07T10:42:34.960Z,101227.34
2023-02-07T10:45:03.132Z,101231.38
2023-02-07T10:47:34.793Z,101228.06
2023-02-07T10:50:08.586Z,101225.31
2023-02-07T10:52:40.357Z,101215.13
2023-02-07T10:55:12.574Z,101209.38
2023-02-07T10:57:45.940Z,101215.84
2023-02-07T11:00:27.159Z,101223.09
2023-02-07T11:02:55.953Z,101200.34
2023-02-07T11:05:37.687Z,101213.84
2023-02-07T11:08:18.489Z,101182.97
2023-02-07T11:10:48.567Z,101214.97
2023-02-07T11:13:19.362Z,101210.41
2023-02-07T11:15:51.848Z,101186.69
2023-02-07T11:18:30.621Z,101215.91
2023-02-07T11:20:58.981Z,101217.00
2023-02-07T11:23:27.575Z,101208.63
2023-02-07T11:25:58.150Z,101172.88
2023-02-07T11:28:28.947Z,101207.88
2023-02-07T11:31:01.396Z,101205.94
2023-02-07T11:33:31.729Z,101196.34
2023-02-07T11:36:04.821Z,101190.38
2023-02-07T11:38:38.549Z,101179.75
2023-02-07T11:41:17.125Z,101158.16
2023-02-07T11:43:55.749Z,101180.53
2023-02-07T11:46:25.445Z,101180.00
2023-02-07T11:48:57.387Z,101179.69
2023-02-07T11:51:25.960Z,101158.63
2023-02-07T11:53:57.294Z,101184.50
2023-02-07T11:56:31.034Z,101181.72
2023-02-07T11:58:59.940Z,101179.63
2023-02-07T12:01:32.692Z,101162.59
2023-02-07T12:04:02.788Z,101135.75
2023-02-07T12:06:39.258Z,101143.28
2023-02-07T12:09:21.860Z,101160.75
2023-02-07T12:11:55.822Z,101142.25
2023-02-07T12:14:31.214Z,101147.56
2023-02-07T12:17:01.891Z,101150.22
2023-02-07T12:19:34.694Z,101151.16
2023-02-07T12:22:09.655Z,101150.22
2023-02-07T12:24:43.106Z,101144.72
2023-02-07T12:27:16.600Z,101145.72
2023-02-07T12:29:56.489Z,101140.63
2023-02-07T12:32:35.208Z,101132.09
2023-02-07T12:35:14.004Z,101146.13
2023-02-07T12:37:47.479Z,101146.41
2023-02-07T12:40:22.478Z,101138.00
2023-02-07T12:42:58.527Z,101129.41
2023-02-07T12:45:44.130Z,101143.03
2023-02-07T12:48:21.108Z,101107.34
2023-02-07T12:51:09.309Z,101144.78
2023-02-07T12:53:59.853Z,101144.97
2023-02-07T12:56:40.699Z,101148.78
2023-02-07T12:59:18.823Z,101146.28
2023-02-07T13:01:52.266Z,101133.41
2023-02-07T13:04:58.378Z,101148.50
2023-02-07T13:07:43.110Z,101138.84
2023-02-07T13:10:22.916Z,101151.00
2023-02-07T13:12:57.910Z,101120.16
2023-02-07T13:15:38.134Z,101149.75
2023-02-07T13:18:12.755Z,101147.03
2023-02-07T13:21:03.596Z,101123.97
2023-02-07T13:23:34.743Z,101145.19
2023-02-07T13:26:05.643Z,101155.97
2023-02-07T13:28:43.502Z,101151.00
2023-02-07T13:31:16.851Z,101154.63
2023-02-07T13:33:46.017Z,101144.13
2023-02-07T13:36:20.155Z,101152.56
2023-02-07T13:38:59.495Z,101111.22
2023-02-07T13:41:35.226Z,101151.47
2023-02-07T13:44:12.290Z,101133.50
2023-02-07T13:46:55.904Z,101133.63
2023-02-07T13:49:36.936Z,101139.88
2023-02-07T13:52:11.654Z,101153.47
2023-02-07T13:54:45.888Z,101146.34
2023-02-07T13:57:39.556Z,101136.31
2023-02-07T14:00:17.377Z,101154.63
2023-02-07T14:02:50.443Z,101145.22
2023-02-07T14:05:25.468Z,101148.44
2023-02-07T14:08:00.638Z,101144.59
2023-02-07T14:10:45.965Z,101141.63
2023-02-07T14:13:33.894Z,101144.13
2023-02-07T14:16:06.234Z,101144.31
2023-02-07T14:18:50.916Z,101141.81
2023-02-07T14:21:40.909Z,101139.94
2023-02-07T14:24:32.216Z,101144.31
2023-02-07T14:27:28.029Z,101146.28
2023-02-07T14:30:21.224Z,101146.38
2023-02-07T14:33:12.956Z,101148.81
2023-02-07T14:36:04.009Z,101149.31
2023-02-07T14:38:36.140Z,101128.06
2023-02-07T14:41:11.176Z,101143.19
2023-02-07T14:44:07.907Z,101150.88
2023-02-07T14:46:39.210Z,101041.69
2023-02-07T14:49:14.904Z,101148.91
2023-02-07T14:51:48.073Z,101096.63
2023-02-07T14:54:20.924Z,101148.31
2023-02-07T14:56:54.784Z,101153.38
2023-02-07T14:59:29.627Z,101141.72
2023-02-07T15:01:57.631Z,101166.19
2023-02-07T15:04:25.727Z,101056.16
2023-02-07T15:06:55.089Z,101167.69
2023-02-07T15:09:27.103Z,101116.09
2023-02-07T15:12:15.733Z,101171.47
2023-02-07T15:14:52.938Z,101185.41
2023-02-07T15:17:22.491Z,101183.69
2023-02-07T15:19:52.214Z,101176.97
2023-02-07T15:22:27.997Z,101145.69
2023-02-07T15:24:58.801Z,101190.09
2023-02-07T15:27:28.977Z,101181.56
2023-02-07T15:29:58.533Z,101170.66
2023-02-07T15:32:30.250Z,101191.94
2023-02-07T15:34:58.895Z,101197.34
2023-02-07T15:37:28.307Z,101197.41
2023-02-07T15:39:58.481Z,101202.63
2023-02-07T15:42:26.763Z,101200.25
2023-02-07T15:44:56.760Z,101209.91
2023-02-07T15:47:37.534Z,101209.13
2023-02-07T15:50:09.052Z,101222.97
2023-02-07T15:52:44.604Z,101219.66
2023-02-07T15:55:18.565Z,101235.97
2023-02-07T15:57:46.708Z,101229.16
2023-02-07T16:00:19.180Z,101227.47
2023-02-07T16:02:57.706Z,101225.75
2023-02-07T16:05:29.375Z,101200.44
2023-02-07T16:08:00.833Z,101236.44
2023-02-07T16:10:36.325Z,101230.41
2023-02-07T16:13:11.206Z,101229.69
2023-02-07T16:15:41.197Z,101233.97
2023-02-07T16:18:38.016Z,101214.38
2023-02-07T16:21:07.993Z,101246.03
2023-02-07T16:23:37.606Z,101241.78
2023-02-07T16:26:05.805Z,101241.78
2023-02-07T16:28:34.290Z,101243.50
2023-02-07T16:31:02.249Z,101244.38
2023-02-07T16:33:30.320Z,101243.59
2023-02-07T16:35:58.287Z,101206.09
2023-02-07T16:38:26.277Z,101255.63
2023-02-07T16:40:55.777Z,101207.03
2023-02-07T16:43:35.627Z,101256.47
2023-02-07T16:46:03.860Z,101255.59
2023-02-07T16:48:31.863Z,101259.84
2023-02-07T16:51:01.391Z,101265.06
2023-02-07T16:53:29.512Z,101252.38
2023-02-07T16:56:00.547Z,101269.41
2023-02-07T16:58:31.307Z,101262.56
2023-02-07T17:01:00.399Z,101260.13
2023-02-07T17:03:28.673Z,101273.00
2023-02-07T17:05:56.736Z,101279.00
2023-02-07T17:08:27.192Z,101279.91
2023-02-07T17:11:00.815Z,101278.22
2023-02-07T17:13:29.306Z,101259.41
2023-02-07T17:15:58.240Z,101268.75
2023-02-07T17:18:27.191Z,101280.66
2023-02-07T17:20:56.553Z,101291.72
2023-02-07T17:23:25.259Z,101293.56
2023-02-07T17:25:53.258Z,101299.53
2023-02-07T17:28:22.747Z,101293.41
2023-02-07T17:30:51.110Z,101291.69
2023-02-07T17:33:19.096Z,101291.66
2023-02-07T17:35:47.128Z,101294.16
2023-02-07T17:38:15.062Z,101300.13
2023-02-07T17:40:43.233Z,101300.97
2023-02-07T17:43:11.210Z,101307.78
2023-02-07T17:45:40.551Z,101305.13
2023-02-07T17:48:08.467Z,101291.56
2023-02-07T17:50:41.143Z,101288.25
2023-02-07T17:53:09.974Z,101315.56
2023-02-07T17:55:38.887Z,101323.34
2023-02-07T17:58:07.742Z,101330.13
2023-02-07T18:00:39.212Z,101328.50
2023-02-07T18:03:09.533Z,101322.50
2023-02-07T18:05:39.223Z,101333.69
2023-02-07T18:08:07.137Z,101307.94
2023-02-07T18:10:38.392Z,101328.41
2023-02-07T18:13:06.510Z,101325.06
2023-02-07T18:15:34.818Z,101341.31
2023-02-07T18:18:02.816Z,101339.59
2023-02-07T18:20:34.218Z,101339.50
2023-02-07T18:23:02.786Z,101318.16
2023-02-07T18:25:31.173Z,101339.41
2023-02-07T18:27:59.279Z,101336.88
2023-02-07T18:30:28.680Z,101341.94
2023-02-07T18:32:56.814Z,101347.97
2023-02-07T18:35:24.832Z,101341.16
2023-02-07T18:37:54.084Z,101339.44
2023-02-07T18:40:24.192Z,101342.81
2023-02-07T18:42:52.245Z,101342.91
2023-02-07T18:45:20.708Z,101335.22
2023-02-07T18:47:49.573Z,101336.94
2023-02-07T18:50:19.643Z,101335.28
2023-02-07T18:52:47.715Z,101335.25
2023-02-07T18:55:17.231Z,101337.91
2023-02-07T18:57:45.244Z,101334.41
2023-02-07T19:00:14.288Z,101335.31
2023-02-07T19:02:42.314Z,101334.41
2023-02-07T19:05:10.430Z,101337.88
2023-02-07T19:07:38.343Z,101336.25
2023-02-07T19:10:06.723Z,101339.63
2023-02-07T19:12:36.041Z,101338.78
2023-02-07T19:15:04.530Z,101337.19
2023-02-07T19:17:32.721Z,101330.25
2023-02-07T19:20:00.736Z,101338.72
2023-02-07T19:22:35.461Z,101339.59
2023-02-07T19:25:04.177Z,101334.41
2023-02-07T19:27:32.129Z,101326.78
2023-02-07T19:30:01.503Z,101304.53
2023-02-07T19:32:29.518Z,101335.28
2023-02-07T19:34:57.479Z,101340.31
2023-02-07T19:37:25.534Z,101337.75
2023-02-07T19:39:56.288Z,101339.41
2023-02-07T19:42:25.310Z,101333.53
2023-02-07T19:44:53.247Z,101331.00
2023-02-07T19:47:22.916Z,101335.25
2023-02-07T19:49:52.282Z,101333.53
2023-02-07T19:52:20.506Z,101335.25
2023-02-07T19:54:48.422Z,101337.81
2023-02-07T19:57:17.114Z,101339.56
2023-02-07T19:59:45.655Z,101339.59
2023-02-07T20:02:14.886Z,101339.59
2023-02-07T20:04:44.294Z,101337.91
2023-02-07T20:07:12.274Z,101333.63
2023-02-07T20:09:40.227Z,101344.84
2023-02-07T20:12:08.487Z,101349.19
2023-02-07T20:14:36.722Z,101355.25
2023-02-07T20:17:04.638Z,101358.72
2023-02-07T20:19:32.695Z,101351.81
2023-02-07T20:22:02.129Z,101354.38
2023-02-07T20:24:30.027Z,101361.22
2023-02-07T20:26:58.021Z,101359.56
2023-02-07T20:29:26.082Z,101363.78
2023-02-07T20:31:54.961Z,101357.84
2023-02-07T20:34:22.930Z,101363.00
2023-02-07T20:36:50.923Z,101367.25
2023-02-07T20:39:22.651Z,101367.34
2023-02-07T20:41:50.982Z,101370.78
2023-02-07T20:44:20.237Z,101365.66
2023-02-07T20:46:49.371Z,101364.78
2023-02-07T20:49:19.818Z,101370.75
2023-02-07T20:51:49.889Z,101367.38
2023-02-07T20:54:20.724Z,101369.00
2023-02-07T20:56:48.719Z,101369.84
2023-02-07T20:59:18.910Z,101368.94
2023-02-07T21:01:47.322Z,101372.41
2023-02-07T21:04:15.726Z,101373.25
2023-02-07T21:06:44.784Z,101368.97
2023-02-07T21:09:14.629Z,101370.69
2023-02-07T21:11:45.741Z,101368.16
2023-02-07T21:14:16.372Z,101375.88
2023-02-07T21:16:44.689Z,101373.28
2023-02-07T21:19:12.780Z,101381.81
2023-02-07T21:21:40.757Z,101375.78
2023-02-07T21:24:09.230Z,101358.72
2023-02-07T21:26:37.218Z,101373.28
2023-02-07T21:29:07.524Z,101388.66
2023-02-07T21:31:36.224Z,101388.66
2023-02-07T21:34:04.855Z,101385.22
2023-02-07T21:36:34.447Z,101384.31
2023-02-07T21:39:04.620Z,101378.38
2023-02-07T21:41:32.900Z,101397.19
2023-02-07T21:44:01.310Z,101292.09
2023-02-07T21:46:33.607Z,101394.63
2023-02-07T21:49:03.356Z,101398.91
2023-02-07T21:51:33.002Z,101363.91
2023-02-07T21:54:01.976Z,101398.06
2023-02-07T21:56:32.561Z,101382.72
2023-02-07T21:59:03.514Z,101410.03
2023-02-07T22:01:33.733Z,101414.38
2023-02-07T22:04:03.561Z,101411.84
2023-02-07T22:06:32.822Z,101399.84
2023-02-07T22:09:04.888Z,101419.50
2023-02-07T22:11:35.203Z,101428.00
2023-02-07T22:14:04.181Z,101406.66
2023-02-07T22:16:34.525Z,101400.72
2023-02-07T22:19:04.258Z,101425.47
2023-02-07T22:21:34.197Z,101428.03
2023-02-07T22:24:02.898Z,101426.38
2023-02-07T22:26:31.331Z,101428.09
2023-02-07T22:29:00.017Z,101422.94
2023-02-07T22:31:29.706Z,101404.13
2023-02-07T22:34:03.127Z,101434.91
2023-02-07T22:36:34.447Z,101405.00
2023-02-07T22:39:04.621Z,101428.91
2023-02-07T22:41:34.203Z,101432.34
2023-02-07T22:44:02.388Z,101406.72
2023-02-07T22:46:31.270Z,101428.09
2023-02-07T22:49:00.661Z,101423.84
2023-02-07T22:51:30.314Z,101423.00
2023-02-07T22:54:05.706Z,101433.25
2023-02-07T22:56:35.347Z,101434.09
2023-02-07T22:59:03.297Z,101430.69
2023-02-07T23:01:34.418Z,101414.44
2023-02-07T23:04:05.253Z,101414.44
2023-02-07T23:06:33.545Z,101425.56
2023-02-07T23:09:02.452Z,101424.69
2023-02-07T23:11:30.409Z,101372.53
2023-02-07T23:13:58.478Z,101430.69
2023-02-07T23:16:28.312Z,101410.13
2023-02-07T23:18:57.742Z,101425.53
2023-02-07T23:21:27.949Z,101428.09
2023-02-07T23:23:58.674Z,101429.81
2023-02-07T23:26:28.039Z,101427.28
2023-02-07T23:28:56.271Z,101427.28
2023-02-07T23:31:26.028Z,101413.59
2023-02-07T23:33:54.676Z,101433.25
2023-02-07T23:36:23.662Z,101428.09
2023-02-07T23:38:53.032Z,101434.13
2023-02-07T23:41:20.994Z,101431.53
2023-02-07T23:43:49.188Z,101433.25
2023-02-07T23:46:17.854Z,101433.25
2023-02-07T23:48:45.942Z,101442.66
2023-02-07T23:51:15.599Z,101435.78
2023-02-07T23:53:43.843Z,101452.94
2023-02-07T23:56:16.928Z,101452.94
2023-02-07T23:58:46.056Z,101409.31
